sensor_id;sensor_type;location;lat;lon;timestamp;P1;durP1;ratioP1;P2;durP2;ratioP2
52786;SDS011;38661;53.152;5.846;2022-08-19T00:01:52;9.40;;;7.93;;
52786;SDS011;38661;53.152;5.846;2022-08-19T00:04:21;13.85;;;8.80;;
52786;SDS011;38661;53.152;5.846;2022-08-19T00:06:49;9.07;;;8.02;;
52786;SDS011;38661;53.152;5.846;2022-08-19T00:09:16;13.48;;;7.70;;
52786;SDS011;38661;53.152;5.846;2022-08-19T00:11:44;9.48;;;8.48;;
52786;SDS011;38661;53.152;5.846;2022-08-19T00:14:11;13.18;;;8.18;;
52786;SDS011;38661;53.152;5.846;2022-08-19T00:16:40;11.30;;;8.07;;
52786;SDS011;38661;53.152;5.846;2022-08-19T00:19:07;10.20;;;8.60;;
52786;SDS011;38661;53.152;5.846;2022-08-19T00:21:33;10.30;;;9.20;;
52786;SDS011;38661;53.152;5.846;2022-08-19T00:24:03;12.70;;;9.02;;
52786;SDS011;38661;53.152;5.846;2022-08-19T00:26:29;12.23;;;8.88;;
52786;SDS011;38661;53.152;5.846;2022-08-19T00:28:55;10.23;;;8.80;;
52786;SDS011;38661;53.152;5.846;2022-08-19T00:31:21;10.98;;;9.15;;
52786;SDS011;38661;53.152;5.846;2022-08-19T00:33:47;10.77;;;8.82;;
52786;SDS011;38661;53.152;5.846;2022-08-19T00:36:15;11.23;;;8.50;;
52786;SDS011;38661;53.152;5.846;2022-08-19T00:38:41;13.02;;;10.15;;
52786;SDS011;38661;53.152;5.846;2022-08-19T00:41:08;14.45;;;9.90;;
52786;SDS011;38661;53.152;5.846;2022-08-19T00:43:37;12.10;;;9.48;;
52786;SDS011;38661;53.152;5.846;2022-08-19T00:46:03;10.50;;;8.63;;
52786;SDS011;38661;53.152;5.846;2022-08-19T00:48:29;13.27;;;8.88;;
52786;SDS011;38661;53.152;5.846;2022-08-19T00:50:56;11.82;;;9.23;;
52786;SDS011;38661;53.152;5.846;2022-08-19T00:53:24;12.38;;;10.35;;
52786;SDS011;38661;53.152;5.846;2022-08-19T00:55:53;11.88;;;8.32;;
52786;SDS011;38661;53.152;5.846;2022-08-19T00:58:22;9.50;;;8.48;;
52786;SDS011;38661;53.152;5.846;2022-08-19T01:00:52;9.32;;;8.13;;
52786;SDS011;38661;53.152;5.846;2022-08-19T01:03:19;11.00;;;8.70;;
52786;SDS011;38661;53.152;5.846;2022-08-19T01:05:46;12.10;;;8.57;;
52786;SDS011;38661;53.152;5.846;2022-08-19T01:08:14;9.70;;;8.10;;
52786;SDS011;38661;53.152;5.846;2022-08-19T01:10:43;10.25;;;8.98;;
52786;SDS011;38661;53.152;5.846;2022-08-19T01:13:11;11.60;;;9.23;;
52786;SDS011;38661;53.152;5.846;2022-08-19T01:15:40;10.40;;;8.75;;
52786;SDS011;38661;53.152;5.846;2022-08-19T01:18:11;9.77;;;8.05;;
52786;SDS011;38661;53.152;5.846;2022-08-19T01:20:39;12.00;;;8.50;;
52786;SDS011;38661;53.152;5.846;2022-08-19T01:23:06;9.57;;;8.27;;
52786;SDS011;38661;53.152;5.846;2022-08-19T01:25:39;11.32;;;8.38;;
52786;SDS011;38661;53.152;5.846;2022-08-19T01:28:14;10.27;;;9.20;;
52786;SDS011;38661;53.152;5.846;2022-08-19T01:30:52;9.75;;;8.55;;
52786;SDS011;38661;53.152;5.846;2022-08-19T01:33:19;11.18;;;9.48;;
52786;SDS011;38661;53.152;5.846;2022-08-19T01:35:45;14.98;;;9.50;;
52786;SDS011;38661;53.152;5.846;2022-08-19T01:38:25;11.27;;;8.50;;
52786;SDS011;38661;53.152;5.846;2022-08-19T01:40:52;9.52;;;8.27;;
52786;SDS011;38661;53.152;5.846;2022-08-19T01:43:18;10.70;;;9.57;;
52786;SDS011;38661;53.152;5.846;2022-08-19T01:45:44;11.00;;;9.00;;
52786;SDS011;38661;53.152;5.846;2022-08-19T01:48:10;11.30;;;9.10;;
52786;SDS011;38661;53.152;5.846;2022-08-19T01:50:37;12.38;;;9.55;;
52786;SDS011;38661;53.152;5.846;2022-08-19T01:53:04;13.50;;;10.73;;
52786;SDS011;38661;53.152;5.846;2022-08-19T01:55:32;10.80;;;9.63;;
52786;SDS011;38661;53.152;5.846;2022-08-19T01:58:02;10.68;;;9.25;;
52786;SDS011;38661;53.152;5.846;2022-08-19T02:00:29;14.60;;;11.20;;
52786;SDS011;38661;53.152;5.846;2022-08-19T02:02:56;12.05;;;10.13;;
52786;SDS011;38661;53.152;5.846;2022-08-19T02:05:22;12.05;;;10.63;;
52786;SDS011;38661;53.152;5.846;2022-08-19T02:07:48;12.45;;;8.65;;
52786;SDS011;38661;53.152;5.846;2022-08-19T02:10:16;12.90;;;10.00;;
52786;SDS011;38661;53.152;5.846;2022-08-19T02:12:44;14.82;;;11.00;;
52786;SDS011;38661;53.152;5.846;2022-08-19T02:15:10;14.27;;;10.75;;
52786;SDS011;38661;53.152;5.846;2022-08-19T02:17:36;13.20;;;11.20;;
52786;SDS011;38661;53.152;5.846;2022-08-19T02:20:03;10.05;;;8.98;;
52786;SDS011;38661;53.152;5.846;2022-08-19T02:22:31;12.98;;;11.40;;
52786;SDS011;38661;53.152;5.846;2022-08-19T02:24:57;15.65;;;13.18;;
52786;SDS011;38661;53.152;5.846;2022-08-19T02:27:22;13.13;;;10.63;;
52786;SDS011;38661;53.152;5.846;2022-08-19T02:29:49;12.82;;;10.52;;
52786;SDS011;38661;53.152;5.846;2022-08-19T02:32:16;14.30;;;10.55;;
52786;SDS011;38661;53.152;5.846;2022-08-19T02:34:43;14.27;;;12.40;;
52786;SDS011;38661;53.152;5.846;2022-08-19T02:37:09;15.63;;;12.15;;
52786;SDS011;38661;53.152;5.846;2022-08-19T02:39:55;14.23;;;11.95;;
52786;SDS011;38661;53.152;5.846;2022-08-19T02:42:21;14.85;;;12.10;;
52786;SDS011;38661;53.152;5.846;2022-08-19T02:44:47;14.73;;;11.48;;
52786;SDS011;38661;53.152;5.846;2022-08-19T02:47:12;14.05;;;12.60;;
52786;SDS011;38661;53.152;5.846;2022-08-19T02:49:40;11.77;;;10.40;;
52786;SDS011;38661;53.152;5.846;2022-08-19T02:52:06;12.32;;;10.73;;
52786;SDS011;38661;53.152;5.846;2022-08-19T02:54:32;13.63;;;11.93;;
52786;SDS011;38661;53.152;5.846;2022-08-19T02:56:57;15.13;;;11.75;;
52786;SDS011;38661;53.152;5.846;2022-08-19T02:59:23;14.70;;;11.30;;
52786;SDS011;38661;53.152;5.846;2022-08-19T03:01:51;13.60;;;10.52;;
52786;SDS011;38661;53.152;5.846;2022-08-19T03:04:17;11.18;;;7.95;;
52786;SDS011;38661;53.152;5.846;2022-08-19T03:06:45;16.45;;;12.23;;
52786;SDS011;38661;53.152;5.846;2022-08-19T03:09:12;11.55;;;10.25;;
52786;SDS011;38661;53.152;5.846;2022-08-19T03:11:38;15.90;;;12.63;;
52786;SDS011;38661;53.152;5.846;2022-08-19T03:14:04;13.43;;;11.98;;
52786;SDS011;38661;53.152;5.846;2022-08-19T03:16:32;14.40;;;11.73;;
52786;SDS011;38661;53.152;5.846;2022-08-19T03:19:00;14.82;;;9.75;;
52786;SDS011;38661;53.152;5.846;2022-08-19T03:21:28;13.65;;;10.93;;
52786;SDS011;38661;53.152;5.846;2022-08-19T03:23:56;13.13;;;9.77;;
52786;SDS011;38661;53.152;5.846;2022-08-19T03:26:24;15.00;;;9.90;;
52786;SDS011;38661;53.152;5.846;2022-08-19T03:28:50;11.55;;;9.70;;
52786;SDS011;38661;53.152;5.846;2022-08-19T03:31:20;14.63;;;11.63;;
52786;SDS011;38661;53.152;5.846;2022-08-19T03:33:48;14.43;;;11.70;;
52786;SDS011;38661;53.152;5.846;2022-08-19T03:36:20;11.30;;;9.52;;
52786;SDS011;38661;53.152;5.846;2022-08-19T03:38:57;13.40;;;11.45;;
52786;SDS011;38661;53.152;5.846;2022-08-19T03:41:26;13.75;;;11.52;;
52786;SDS011;38661;53.152;5.846;2022-08-19T03:43:54;12.63;;;11.23;;
52786;SDS011;38661;53.152;5.846;2022-08-19T03:46:23;15.07;;;11.32;;
52786;SDS011;38661;53.152;5.846;2022-08-19T03:48:52;15.18;;;12.63;;
52786;SDS011;38661;53.152;5.846;2022-08-19T03:51:21;17.15;;;11.82;;
52786;SDS011;38661;53.152;5.846;2022-08-19T03:53:49;9.18;;;7.25;;
52786;SDS011;38661;53.152;5.846;2022-08-19T03:56:16;14.27;;;11.02;;
52786;SDS011;38661;53.152;5.846;2022-08-19T03:58:42;14.00;;;10.75;;
52786;SDS011;38661;53.152;5.846;2022-08-19T04:01:10;16.05;;;11.38;;
52786;SDS011;38661;53.152;5.846;2022-08-19T04:03:37;14.90;;;12.10;;
52786;SDS011;38661;53.152;5.846;2022-08-19T04:06:14;17.48;;;12.13;;
52786;SDS011;38661;53.152;5.846;2022-08-19T04:08:42;11.38;;;9.77;;
52786;SDS011;38661;53.152;5.846;2022-08-19T04:11:11;13.95;;;11.85;;
52786;SDS011;38661;53.152;5.846;2022-08-19T04:13:39;14.70;;;11.80;;
52786;SDS011;38661;53.152;5.846;2022-08-19T04:16:06;13.65;;;11.88;;
52786;SDS011;38661;53.152;5.846;2022-08-19T04:18:32;15.88;;;13.07;;
52786;SDS011;38661;53.152;5.846;2022-08-19T04:20:58;16.13;;;12.65;;
52786;SDS011;38661;53.152;5.846;2022-08-19T04:23:24;13.93;;;11.40;;
52786;SDS011;38661;53.152;5.846;2022-08-19T04:25:53;13.02;;;10.77;;
52786;SDS011;38661;53.152;5.846;2022-08-19T04:28:19;13.90;;;11.45;;
52786;SDS011;38661;53.152;5.846;2022-08-19T04:30:46;13.93;;;11.73;;
52786;SDS011;38661;53.152;5.846;2022-08-19T04:33:15;13.93;;;11.95;;
52786;SDS011;38661;53.152;5.846;2022-08-19T04:35:45;17.63;;;11.52;;
52786;SDS011;38661;53.152;5.846;2022-08-19T04:38:13;10.18;;;9.07;;
52786;SDS011;38661;53.152;5.846;2022-08-19T04:40:45;9.77;;;8.60;;
52786;SDS011;38661;53.152;5.846;2022-08-19T04:43:32;8.18;;;7.38;;
52786;SDS011;38661;53.152;5.846;2022-08-19T04:45:58;8.75;;;7.43;;
52786;SDS011;38661;53.152;5.846;2022-08-19T04:48:30;8.57;;;7.22;;
52786;SDS011;38661;53.152;5.846;2022-08-19T04:50:57;9.15;;;8.25;;
52786;SDS011;38661;53.152;5.846;2022-08-19T04:53:24;13.52;;;9.82;;
52786;SDS011;38661;53.152;5.846;2022-08-19T04:55:51;11.63;;;10.18;;
52786;SDS011;38661;53.152;5.846;2022-08-19T04:58:17;13.18;;;9.23;;
52786;SDS011;38661;53.152;5.846;2022-08-19T05:00:43;13.45;;;10.40;;
52786;SDS011;38661;53.152;5.846;2022-08-19T05:03:09;9.85;;;8.15;;
52786;SDS011;38661;53.152;5.846;2022-08-19T05:05:41;13.18;;;10.77;;
52786;SDS011;38661;53.152;5.846;2022-08-19T05:08:08;12.60;;;10.90;;
52786;SDS011;38661;53.152;5.846;2022-08-19T05:10:38;12.93;;;9.73;;
52786;SDS011;38661;53.152;5.846;2022-08-19T05:13:04;13.98;;;11.20;;
52786;SDS011;38661;53.152;5.846;2022-08-19T05:15:30;15.50;;;12.70;;
52786;SDS011;38661;53.152;5.846;2022-08-19T05:17:56;17.77;;;12.85;;
52786;SDS011;38661;53.152;5.846;2022-08-19T05:20:41;18.50;;;14.57;;
52786;SDS011;38661;53.152;5.846;2022-08-19T05:23:25;14.57;;;9.68;;
52786;SDS011;38661;53.152;5.846;2022-08-19T05:25:51;18.17;;;13.57;;
52786;SDS011;38661;53.152;5.846;2022-08-19T05:28:18;13.52;;;11.45;;
52786;SDS011;38661;53.152;5.846;2022-08-19T05:30:45;19.05;;;15.55;;
52786;SDS011;38661;53.152;5.846;2022-08-19T05:33:11;22.80;;;17.63;;
52786;SDS011;38661;53.152;5.846;2022-08-19T05:35:40;23.75;;;16.27;;
52786;SDS011;38661;53.152;5.846;2022-08-19T05:38:06;24.15;;;18.05;;
52786;SDS011;38661;53.152;5.846;2022-08-19T05:40:39;23.65;;;17.55;;
52786;SDS011;38661;53.152;5.846;2022-08-19T05:43:05;24.23;;;17.77;;
52786;SDS011;38661;53.152;5.846;2022-08-19T05:45:37;24.15;;;18.15;;
52786;SDS011;38661;53.152;5.846;2022-08-19T05:48:04;28.65;;;19.17;;
52786;SDS011;38661;53.152;5.846;2022-08-19T05:50:30;22.13;;;17.10;;
52786;SDS011;38661;53.152;5.846;2022-08-19T05:52:56;21.83;;;16.60;;
52786;SDS011;38661;53.152;5.846;2022-08-19T05:55:22;23.48;;;17.88;;
52786;SDS011;38661;53.152;5.846;2022-08-19T05:57:48;27.38;;;18.60;;
52786;SDS011;38661;53.152;5.846;2022-08-19T06:00:13;22.00;;;16.48;;
52786;SDS011;38661;53.152;5.846;2022-08-19T06:02:40;23.05;;;19.30;;
52786;SDS011;38661;53.152;5.846;2022-08-19T06:05:06;23.02;;;17.48;;
52786;SDS011;38661;53.152;5.846;2022-08-19T06:07:37;19.42;;;16.45;;
52786;SDS011;38661;53.152;5.846;2022-08-19T06:10:05;22.73;;;17.08;;
52786;SDS011;38661;53.152;5.846;2022-08-19T06:12:33;25.23;;;18.50;;
52786;SDS011;38661;53.152;5.846;2022-08-19T06:15:01;23.65;;;18.30;;
52786;SDS011;38661;53.152;5.846;2022-08-19T06:17:30;25.73;;;18.63;;
52786;SDS011;38661;53.152;5.846;2022-08-19T06:19:56;23.08;;;18.90;;
52786;SDS011;38661;53.152;5.846;2022-08-19T06:22:23;29.40;;;18.30;;
52786;SDS011;38661;53.152;5.846;2022-08-19T06:24:48;27.15;;;18.42;;
52786;SDS011;38661;53.152;5.846;2022-08-19T06:27:17;21.25;;;17.50;;
52786;SDS011;38661;53.152;5.846;2022-08-19T06:29:43;19.70;;;17.38;;
52786;SDS011;38661;53.152;5.846;2022-08-19T06:32:11;24.67;;;18.90;;
52786;SDS011;38661;53.152;5.846;2022-08-19T06:34:40;24.58;;;18.90;;
52786;SDS011;38661;53.152;5.846;2022-08-19T06:37:06;23.30;;;18.75;;
52786;SDS011;38661;53.152;5.846;2022-08-19T06:39:35;19.25;;;15.68;;
52786;SDS011;38661;53.152;5.846;2022-08-19T06:42:04;23.73;;;17.95;;
52786;SDS011;38661;53.152;5.846;2022-08-19T06:44:33;20.17;;;17.30;;
52786;SDS011;38661;53.152;5.846;2022-08-19T06:47:05;20.27;;;16.85;;
52786;SDS011;38661;53.152;5.846;2022-08-19T06:49:32;22.75;;;19.02;;
52786;SDS011;38661;53.152;5.846;2022-08-19T06:51:58;19.77;;;16.50;;
52786;SDS011;38661;53.152;5.846;2022-08-19T06:54:25;21.15;;;16.63;;
52786;SDS011;38661;53.152;5.846;2022-08-19T06:56:53;22.10;;;17.38;;
52786;SDS011;38661;53.152;5.846;2022-08-19T06:59:20;24.67;;;18.88;;
52786;SDS011;38661;53.152;5.846;2022-08-19T07:01:51;23.20;;;18.27;;
52786;SDS011;38661;53.152;5.846;2022-08-19T07:04:20;22.83;;;17.95;;
52786;SDS011;38661;53.152;5.846;2022-08-19T07:06:58;21.13;;;15.73;;
52786;SDS011;38661;53.152;5.846;2022-08-19T07:09:26;23.85;;;19.08;;
52786;SDS011;38661;53.152;5.846;2022-08-19T07:11:53;24.52;;;18.67;;
52786;SDS011;38661;53.152;5.846;2022-08-19T07:14:21;21.00;;;17.63;;
52786;SDS011;38661;53.152;5.846;2022-08-19T07:16:50;20.83;;;17.77;;
52786;SDS011;38661;53.152;5.846;2022-08-19T07:19:19;22.52;;;20.13;;
52786;SDS011;38661;53.152;5.846;2022-08-19T07:21:47;25.42;;;18.90;;
52786;SDS011;38661;53.152;5.846;2022-08-19T07:24:14;22.15;;;19.77;;
52786;SDS011;38661;53.152;5.846;2022-08-19T07:26:41;23.52;;;19.83;;
52786;SDS011;38661;53.152;5.846;2022-08-19T07:29:08;22.25;;;19.00;;
52786;SDS011;38661;53.152;5.846;2022-08-19T07:31:35;24.33;;;19.98;;
52786;SDS011;38661;53.152;5.846;2022-08-19T07:34:03;24.98;;;22.27;;
52786;SDS011;38661;53.152;5.846;2022-08-19T07:36:34;26.20;;;21.92;;
52786;SDS011;38661;53.152;5.846;2022-08-19T07:39:04;26.80;;;23.40;;
52786;SDS011;38661;53.152;5.846;2022-08-19T07:41:32;26.30;;;20.88;;
52786;SDS011;38661;53.152;5.846;2022-08-19T07:44:00;26.35;;;20.00;;
52786;SDS011;38661;53.152;5.846;2022-08-19T07:46:30;29.17;;;23.52;;
52786;SDS011;38661;53.152;5.846;2022-08-19T07:48:56;26.23;;;21.35;;
52786;SDS011;38661;53.152;5.846;2022-08-19T07:51:22;25.52;;;22.48;;
52786;SDS011;38661;53.152;5.846;2022-08-19T07:53:48;26.50;;;23.48;;
52786;SDS011;38661;53.152;5.846;2022-08-19T07:56:16;26.75;;;23.58;;
52786;SDS011;38661;53.152;5.846;2022-08-19T07:58:44;28.52;;;23.02;;
52786;SDS011;38661;53.152;5.846;2022-08-19T08:01:12;31.52;;;24.13;;
52786;SDS011;38661;53.152;5.846;2022-08-19T08:03:43;27.17;;;23.55;;
52786;SDS011;38661;53.152;5.846;2022-08-19T08:06:28;27.60;;;24.60;;
52786;SDS011;38661;53.152;5.846;2022-08-19T08:09:12;28.52;;;23.20;;
52786;SDS011;38661;53.152;5.846;2022-08-19T08:11:52;29.30;;;25.65;;
52786;SDS011;38661;53.152;5.846;2022-08-19T08:14:21;29.10;;;24.92;;
52786;SDS011;38661;53.152;5.846;2022-08-19T08:16:58;29.73;;;26.55;;
52786;SDS011;38661;53.152;5.846;2022-08-19T08:19:24;32.22;;;23.75;;
52786;SDS011;38661;53.152;5.846;2022-08-19T08:21:51;28.85;;;25.27;;
52786;SDS011;38661;53.152;5.846;2022-08-19T08:24:21;27.23;;;24.25;;
52786;SDS011;38661;53.152;5.846;2022-08-19T08:26:47;29.60;;;25.77;;
52786;SDS011;38661;53.152;5.846;2022-08-19T08:29:14;32.47;;;28.88;;
52786;SDS011;38661;53.152;5.846;2022-08-19T08:31:41;31.50;;;27.40;;
52786;SDS011;38661;53.152;5.846;2022-08-19T08:34:08;33.58;;;29.23;;
52786;SDS011;38661;53.152;5.846;2022-08-19T08:36:37;30.77;;;27.33;;
52786;SDS011;38661;53.152;5.846;2022-08-19T08:39:07;33.17;;;27.38;;
52786;SDS011;38661;53.152;5.846;2022-08-19T08:44:06;38.15;;;28.00;;
52786;SDS011;38661;53.152;5.846;2022-08-19T08:46:47;31.02;;;26.42;;
52786;SDS011;38661;53.152;5.846;2022-08-19T08:49:20;30.10;;;26.73;;
52786;SDS011;38661;53.152;5.846;2022-08-19T08:51:54;32.20;;;23.77;;
52786;SDS011;38661;53.152;5.846;2022-08-19T08:54:35;34.95;;;29.70;;
52786;SDS011;38661;53.152;5.846;2022-08-19T08:57:07;34.45;;;27.42;;
52786;SDS011;38661;53.152;5.846;2022-08-19T08:59:39;33.95;;;28.98;;
52786;SDS011;38661;53.152;5.846;2022-08-19T09:02:06;31.85;;;27.95;;
52786;SDS011;38661;53.152;5.846;2022-08-19T09:04:36;37.25;;;31.30;;
52786;SDS011;38661;53.152;5.846;2022-08-19T09:09:58;26.15;;;20.40;;
52786;SDS011;38661;53.152;5.846;2022-08-19T09:15:33;23.75;;;21.00;;
52786;SDS011;38661;53.152;5.846;2022-08-19T09:18:03;24.63;;;19.80;;
52786;SDS011;38661;53.152;5.846;2022-08-19T09:20:29;26.90;;;23.50;;
52786;SDS011;38661;53.152;5.846;2022-08-19T09:22:56;26.20;;;22.15;;
52786;SDS011;38661;53.152;5.846;2022-08-19T09:25:23;21.98;;;16.70;;
52786;SDS011;38661;53.152;5.846;2022-08-19T09:27:49;23.25;;;17.80;;
52786;SDS011;38661;53.152;5.846;2022-08-19T09:30:19;16.83;;;15.02;;
52786;SDS011;38661;53.152;5.846;2022-08-19T09:32:47;21.38;;;16.65;;
52786;SDS011;38661;53.152;5.846;2022-08-19T09:35:13;22.90;;;19.15;;
52786;SDS011;38661;53.152;5.846;2022-08-19T09:37:41;26.30;;;19.00;;
52786;SDS011;38661;53.152;5.846;2022-08-19T09:40:08;18.50;;;15.40;;
52786;SDS011;38661;53.152;5.846;2022-08-19T09:42:36;18.73;;;16.77;;
52786;SDS011;38661;53.152;5.846;2022-08-19T09:45:02;23.67;;;17.15;;
52786;SDS011;38661;53.152;5.846;2022-08-19T09:47:28;21.77;;;17.52;;
52786;SDS011;38661;53.152;5.846;2022-08-19T09:49:54;21.77;;;16.48;;
52786;SDS011;38661;53.152;5.846;2022-08-19T09:52:20;24.40;;;18.20;;
52786;SDS011;38661;53.152;5.846;2022-08-19T09:54:45;20.20;;;16.88;;
52786;SDS011;38661;53.152;5.846;2022-08-19T09:57:11;20.08;;;17.30;;
52786;SDS011;38661;53.152;5.846;2022-08-19T09:59:38;23.25;;;20.13;;
52786;SDS011;38661;53.152;5.846;2022-08-19T10:02:05;21.92;;;18.88;;
52786;SDS011;38661;53.152;5.846;2022-08-19T10:04:30;20.75;;;18.52;;
52786;SDS011;38661;53.152;5.846;2022-08-19T10:07:15;21.63;;;16.67;;
52786;SDS011;38661;53.152;5.846;2022-08-19T10:09:41;22.73;;;18.33;;
52786;SDS011;38661;53.152;5.846;2022-08-19T10:12:07;24.02;;;17.73;;
52786;SDS011;38661;53.152;5.846;2022-08-19T10:14:33;18.60;;;16.48;;
52786;SDS011;38661;53.152;5.846;2022-08-19T10:17:00;20.25;;;17.70;;
52786;SDS011;38661;53.152;5.846;2022-08-19T10:19:27;25.67;;;19.13;;
52786;SDS011;38661;53.152;5.846;2022-08-19T10:21:57;22.02;;;18.85;;
52786;SDS011;38661;53.152;5.846;2022-08-19T10:24:23;19.15;;;15.27;;
52786;SDS011;38661;53.152;5.846;2022-08-19T10:26:51;20.63;;;16.73;;
52786;SDS011;38661;53.152;5.846;2022-08-19T10:29:16;22.80;;;17.67;;
52786;SDS011;38661;53.152;5.846;2022-08-19T10:31:42;19.08;;;16.77;;
52786;SDS011;38661;53.152;5.846;2022-08-19T10:34:08;19.13;;;14.85;;
52786;SDS011;38661;53.152;5.846;2022-08-19T10:36:34;18.75;;;15.07;;
52786;SDS011;38661;53.152;5.846;2022-08-19T10:39:06;22.88;;;16.13;;
52786;SDS011;38661;53.152;5.846;2022-08-19T10:41:34;20.85;;;16.35;;
52786;SDS011;38661;53.152;5.846;2022-08-19T10:44:07;20.83;;;16.95;;
52786;SDS011;38661;53.152;5.846;2022-08-19T10:46:41;26.17;;;17.40;;
52786;SDS011;38661;53.152;5.846;2022-08-19T10:49:10;23.92;;;17.92;;
52786;SDS011;38661;53.152;5.846;2022-08-19T10:51:37;20.08;;;14.65;;
52786;SDS011;38661;53.152;5.846;2022-08-19T10:54:21;19.65;;;16.63;;
52786;SDS011;38661;53.152;5.846;2022-08-19T10:56:47;17.20;;;14.63;;
52786;SDS011;38661;53.152;5.846;2022-08-19T10:59:16;21.00;;;14.57;;
52786;SDS011;38661;53.152;5.846;2022-08-19T11:01:48;21.60;;;16.42;;
52786;SDS011;38661;53.152;5.846;2022-08-19T11:04:15;19.95;;;16.05;;
52786;SDS011;38661;53.152;5.846;2022-08-19T11:06:46;23.95;;;16.30;;
52786;SDS011;38661;53.152;5.846;2022-08-19T11:09:19;12.70;;;9.25;;
52786;SDS011;38661;53.152;5.846;2022-08-19T11:11:49;14.68;;;11.27;;
52786;SDS011;38661;53.152;5.846;2022-08-19T11:14:18;14.48;;;10.13;;
52786;SDS011;38661;53.152;5.846;2022-08-19T11:16:46;12.80;;;9.75;;
52786;SDS011;38661;53.152;5.846;2022-08-19T11:19:13;17.23;;;13.15;;
52786;SDS011;38661;53.152;5.846;2022-08-19T11:21:42;16.85;;;13.98;;
52786;SDS011;38661;53.152;5.846;2022-08-19T11:24:13;16.00;;;14.05;;
52786;SDS011;38661;53.152;5.846;2022-08-19T11:26:42;17.42;;;12.82;;
52786;SDS011;38661;53.152;5.846;2022-08-19T11:29:10;15.85;;;13.13;;
52786;SDS011;38661;53.152;5.846;2022-08-19T11:31:38;17.10;;;13.60;;
52786;SDS011;38661;53.152;5.846;2022-08-19T11:34:09;14.18;;;10.48;;
52786;SDS011;38661;53.152;5.846;2022-08-19T11:36:38;15.10;;;12.20;;
52786;SDS011;38661;53.152;5.846;2022-08-19T11:39:06;16.23;;;11.85;;
52786;SDS011;38661;53.152;5.846;2022-08-19T11:41:33;15.80;;;10.70;;
52786;SDS011;38661;53.152;5.846;2022-08-19T11:43:59;16.02;;;12.27;;
52786;SDS011;38661;53.152;5.846;2022-08-19T11:46:25;16.52;;;11.35;;
52786;SDS011;38661;53.152;5.846;2022-08-19T11:48:54;14.77;;;11.38;;
52786;SDS011;38661;53.152;5.846;2022-08-19T11:51:24;13.82;;;11.35;;
52786;SDS011;38661;53.152;5.846;2022-08-19T11:53:51;13.95;;;11.23;;
52786;SDS011;38661;53.152;5.846;2022-08-19T11:56:18;15.95;;;11.25;;
52786;SDS011;38661;53.152;5.846;2022-08-19T11:58:45;14.45;;;11.30;;
52786;SDS011;38661;53.152;5.846;2022-08-19T12:01:13;16.30;;;12.90;;
52786;SDS011;38661;53.152;5.846;2022-08-19T12:03:41;15.40;;;11.98;;
52786;SDS011;38661;53.152;5.846;2022-08-19T12:06:09;13.63;;;10.75;;
52786;SDS011;38661;53.152;5.846;2022-08-19T12:08:38;12.80;;;10.95;;
52786;SDS011;38661;53.152;5.846;2022-08-19T12:11:05;13.93;;;12.30;;
52786;SDS011;38661;53.152;5.846;2022-08-19T12:13:33;15.80;;;12.45;;
52786;SDS011;38661;53.152;5.846;2022-08-19T12:16:00;17.60;;;12.18;;
52786;SDS011;38661;53.152;5.846;2022-08-19T12:18:31;16.92;;;11.88;;
52786;SDS011;38661;53.152;5.846;2022-08-19T12:20:57;15.15;;;11.48;;
52786;SDS011;38661;53.152;5.846;2022-08-19T12:23:26;14.30;;;11.10;;
52786;SDS011;38661;53.152;5.846;2022-08-19T12:25:51;17.58;;;12.80;;
52786;SDS011;38661;53.152;5.846;2022-08-19T12:28:21;15.93;;;14.40;;
52786;SDS011;38661;53.152;5.846;2022-08-19T12:30:50;29.30;;;23.35;;
52786;SDS011;38661;53.152;5.846;2022-08-19T12:33:19;31.08;;;25.20;;
52786;SDS011;38661;53.152;5.846;2022-08-19T12:35:49;15.27;;;13.00;;
52786;SDS011;38661;53.152;5.846;2022-08-19T12:38:15;12.98;;;10.55;;
52786;SDS011;38661;53.152;5.846;2022-08-19T12:40:41;16.48;;;10.75;;
52786;SDS011;38661;53.152;5.846;2022-08-19T12:43:10;14.07;;;9.80;;
52786;SDS011;38661;53.152;5.846;2022-08-19T12:45:36;14.82;;;10.50;;
52786;SDS011;38661;53.152;5.846;2022-08-19T12:48:02;12.05;;;9.57;;
52786;SDS011;38661;53.152;5.846;2022-08-19T12:50:29;12.50;;;10.02;;
52786;SDS011;38661;53.152;5.846;2022-08-19T12:52:56;13.98;;;11.10;;
52786;SDS011;38661;53.152;5.846;2022-08-19T12:55:22;13.90;;;10.18;;
52786;SDS011;38661;53.152;5.846;2022-08-19T12:57:49;13.93;;;9.95;;
52786;SDS011;38661;53.152;5.846;2022-08-19T13:00:16;10.85;;;9.20;;
52786;SDS011;38661;53.152;5.846;2022-08-19T13:02:46;15.02;;;12.10;;
52786;SDS011;38661;53.152;5.846;2022-08-19T13:05:16;12.02;;;10.00;;
52786;SDS011;38661;53.152;5.846;2022-08-19T13:07:47;14.05;;;11.27;;
52786;SDS011;38661;53.152;5.846;2022-08-19T13:10:16;15.43;;;12.43;;
52786;SDS011;38661;53.152;5.846;2022-08-19T13:12:45;15.73;;;11.13;;
52786;SDS011;38661;53.152;5.846;2022-08-19T13:15:13;14.70;;;12.05;;
52786;SDS011;38661;53.152;5.846;2022-08-19T13:17:39;16.35;;;14.75;;
52786;SDS011;38661;53.152;5.846;2022-08-19T13:20:09;17.00;;;13.23;;
52786;SDS011;38661;53.152;5.846;2022-08-19T13:22:36;18.33;;;13.55;;
52786;SDS011;38661;53.152;5.846;2022-08-19T13:25:03;15.18;;;13.57;;
52786;SDS011;38661;53.152;5.846;2022-08-19T13:27:32;16.70;;;13.80;;
52786;SDS011;38661;53.152;5.846;2022-08-19T13:29:58;15.35;;;13.32;;
52786;SDS011;38661;53.152;5.846;2022-08-19T13:32:43;17.13;;;14.30;;
52786;SDS011;38661;53.152;5.846;2022-08-19T13:35:27;15.52;;;13.90;;
52786;SDS011;38661;53.152;5.846;2022-08-19T13:37:53;20.40;;;14.77;;
52786;SDS011;38661;53.152;5.846;2022-08-19T13:40:20;17.30;;;15.43;;
52786;SDS011;38661;53.152;5.846;2022-08-19T13:42:49;20.83;;;17.25;;
52786;SDS011;38661;53.152;5.846;2022-08-19T13:45:18;22.58;;;18.83;;
52786;SDS011;38661;53.152;5.846;2022-08-19T13:47:49;21.40;;;17.15;;
52786;SDS011;38661;53.152;5.846;2022-08-19T13:50:18;18.50;;;15.85;;
52786;SDS011;38661;53.152;5.846;2022-08-19T13:52:45;16.95;;;13.73;;
52786;SDS011;38661;53.152;5.846;2022-08-19T13:55:12;17.05;;;15.27;;
52786;SDS011;38661;53.152;5.846;2022-08-19T13:57:39;16.65;;;14.27;;
52786;SDS011;38661;53.152;5.846;2022-08-19T14:00:11;18.88;;;16.85;;
52786;SDS011;38661;53.152;5.846;2022-08-19T14:02:40;17.83;;;15.90;;
52786;SDS011;38661;53.152;5.846;2022-08-19T14:05:07;18.80;;;16.77;;
52786;SDS011;38661;53.152;5.846;2022-08-19T14:07:34;19.27;;;16.15;;
52786;SDS011;38661;53.152;5.846;2022-08-19T14:10:01;17.92;;;16.10;;
52786;SDS011;38661;53.152;5.846;2022-08-19T14:12:27;17.33;;;14.43;;
52786;SDS011;38661;53.152;5.846;2022-08-19T14:14:53;18.52;;;12.63;;
52786;SDS011;38661;53.152;5.846;2022-08-19T14:17:19;14.05;;;10.38;;
52786;SDS011;38661;53.152;5.846;2022-08-19T14:19:44;10.55;;;9.20;;
52786;SDS011;38661;53.152;5.846;2022-08-19T14:22:10;10.95;;;9.55;;
52786;SDS011;38661;53.152;5.846;2022-08-19T14:24:39;13.00;;;11.55;;
52786;SDS011;38661;53.152;5.846;2022-08-19T14:27:05;9.75;;;7.90;;
52786;SDS011;38661;53.152;5.846;2022-08-19T14:29:31;10.32;;;7.78;;
52786;SDS011;38661;53.152;5.846;2022-08-19T14:31:57;12.95;;;8.55;;
52786;SDS011;38661;53.152;5.846;2022-08-19T14:34:27;9.23;;;7.07;;
52786;SDS011;38661;53.152;5.846;2022-08-19T14:36:52;10.32;;;6.38;;
52786;SDS011;38661;53.152;5.846;2022-08-19T14:39:18;7.78;;;6.35;;
52786;SDS011;38661;53.152;5.846;2022-08-19T14:41:44;5.07;;;4.20;;